Time;durP1;ratioP1;P1;durP2;ratioP2;P2;SDS_P1;SDS_P2;PMS_P1;PMS_P2;Temp;Humidity;BMP_temperature;BMP_pressure;BME280_temperature;BME280_humidity;BME280_pressure;Samples;Min_cycle;Max_cycle;Signal;HPM_P1;HPM_P2
2021/12/09 00:00:59;;;;;;;;;1.40;1.40;;;;;5.02;66.65;99894.59;5014919;28;45592;-61
2021/12/09 00:03:27;;;;;;;;;0.80;0.80;;;;;5.05;65.90;99896.06;5001554;28;46646;-60
2021/12/09 00:05:55;;;;;;;;;0.40;0.40;;;;;5.00;65.62;99889.34;5001706;28;45527;-61
2021/12/09 00:08:21;;;;;;;;;1.00;1.00;;;;;4.70;65.83;99851.41;5011658;28;45370;-62
2021/12/09 00:10:46;;;;;;;;;1.00;1.00;;;;;4.98;65.59;99910.47;5014883;28;45612;-61
2021/12/09 00:13:12;;;;;;;;;0.50;0.50;;;;;4.88;66.31;99880.88;5013058;28;46112;-56
2021/12/09 00:15:37;;;;;;;;;0.50;0.50;;;;;4.92;66.40;99905.81;4997237;28;45362;-62
2021/12/09 00:18:03;;;;;;;;;0.00;0.00;;;;;4.91;65.80;99912.25;5013448;28;45278;-58
2021/12/09 00:20:28;;;;;;;;;0.00;0.00;;;;;4.81;66.70;99892.72;5014978;28;45315;-61
2021/12/09 00:22:54;;;;;;;;;1.00;1.00;;;;;4.83;66.82;99901.53;5014082;28;46591;-60
2021/12/09 00:25:19;;;;;;;;;1.25;1.00;;;;;4.68;66.76;99893.41;5014673;28;45410;-60
2021/12/09 00:27:45;;;;;;;;;2.00;2.00;;;;;4.78;66.95;99902.09;5014249;28;45362;-61
2021/12/09 00:30:11;;;;;;;;;1.00;0.00;;;;;4.53;66.87;99880.75;5018013;28;45554;-62
2021/12/09 00:32:40;;;;;;;;;1.00;1.00;;;;;4.73;66.54;99912.72;5017949;28;46468;-62
2021/12/09 00:35:06;;;;;;;;;1.00;1.00;;;;;4.55;67.10;99872.41;5017985;28;45303;-61
2021/12/09 00:37:41;;;;;;;;;0.00;0.00;;;;;4.50;66.54;99874.84;5018051;28;45330;-61
2021/12/09 00:40:08;;;;;;;;;2.40;0.40;;;;;4.71;66.84;99902.03;5016817;28;45439;-62
2021/12/09 00:42:33;;;;;;;;;0.00;0.00;;;;;4.68;66.81;99909.72;5032635;28;47679;-60
2021/12/09 00:44:59;;;;;;;;;0.00;0.00;;;;;4.70;66.53;99918.56;5017874;28;45502;-60
2021/12/09 00:47:25;;;;;;;;;1.00;0.00;;;;;4.66;66.84;99903.66;5018096;28;45485;-61
2021/12/09 00:49:55;;;;;;;;;0.80;0.00;;;;;4.75;66.78;99914.22;5016890;28;45408;-62
2021/12/09 00:52:24;;;;;;;;;1.60;0.00;;;;;4.78;67.74;99914.84;5018047;28;46843;-63
2021/12/09 00:54:50;;;;;;;;;3.00;0.00;;;;;4.78;66.63;99920.28;5016507;28;45399;-63
2021/12/09 00:57:16;;;;;;;;;0.40;0.40;;;;;4.65;67.71;99902.84;5033069;28;45457;-57
2021/12/09 00:59:41;;;;;;;;;1.00;0.00;;;;;4.78;67.24;99920.28;5018134;28;45259;-60
2021/12/09 01:02:09;;;;;;;;;1.00;0.75;;;;;4.27;67.06;99848.72;5017371;28;46452;-61
2021/12/09 01:04:36;;;;;;;;;1.40;1.00;;;;;4.77;67.29;99922.19;5012259;28;45518;-58
2021/12/09 01:07:02;;;;;;;;;0.80;0.80;;;;;4.53;67.52;99896.22;5006017;28;45674;-61
2021/12/09 01:09:28;;;;;;;;;0.00;0.00;;;;;4.68;67.49;99923.31;5017102;28;45433;-61
2021/12/09 01:11:53;;;;;;;;;2.50;0.00;;;;;4.72;67.25;99919.19;5014283;28;45729;-61
2021/12/09 01:14:19;;;;;;;;;0.50;0.50;;;;;4.69;67.50;99909.53;5015876;28;45374;-62
2021/12/09 01:16:44;;;;;;;;;0.00;0.00;;;;;4.69;67.61;99923.13;4998862;28;45430;-55
2021/12/09 01:19:10;;;;;;;;;1.00;1.00;;;;;4.74;67.67;99920.69;5016313;28;45628;-64
2021/12/09 01:21:35;;;;;;;;;1.00;1.00;;;;;4.67;67.60;99918.94;5011811;28;46919;-61
2021/12/09 01:24:01;;;;;;;;;2.00;0.00;;;;;4.51;67.75;99896.41;5013789;28;45450;-63
2021/12/09 01:26:28;;;;;;;;;1.25;1.00;;;;;4.61;66.67;99910.50;5017292;28;45416;-61
2021/12/09 01:28:58;;;;;;;;;0.20;0.20;;;;;4.67;67.68;99937.97;5017228;28;45400;-62
2021/12/09 01:31:29;;;;;;;;;0.60;0.60;;;;;4.57;67.41;99921.97;5017188;28;46415;-62
2021/12/09 01:34:00;;;;;;;;;0.00;0.00;;;;;4.57;68.04;99914.66;5015583;28;45429;-62
2021/12/09 01:36:25;;;;;;;;;0.00;0.00;;;;;4.75;66.96;99955.00;5017262;28;45373;-63
2021/12/09 01:38:51;;;;;;;;;1.50;0.50;;;;;4.78;67.31;99950.19;5016051;28;45510;-63
2021/12/09 01:41:16;;;;;;;;;2.00;0.00;;;;;4.70;67.31;99953.91;5014445;28;47803;-61
2021/12/09 01:43:42;;;;;;;;;1.00;1.00;;;;;4.70;67.82;99945.75;5016923;28;45324;-62
2021/12/09 01:46:09;;;;;;;;;1.00;1.00;;;;;4.54;67.51;99914.22;5017200;28;45399;-57
2021/12/09 01:48:35;;;;;;;;;1.80;0.60;;;;;4.67;66.81;99937.97;5032206;28;45577;-62
2021/12/09 01:51:00;;;;;;;;;1.00;1.00;;;;;4.51;66.90;99910.00;5015597;28;45413;-61
2021/12/09 01:53:26;;;;;;;;;1.25;0.25;;;;;4.78;66.63;99951.06;5016624;28;45666;-63
2021/12/09 01:55:52;;;;;;;;;0.00;0.00;;;;;4.73;67.16;99954.34;5016950;28;45291;-61
2021/12/09 01:58:17;;;;;;;;;0.00;0.00;;;;;4.72;67.28;99949.09;5015313;28;45604;-61
2021/12/09 02:00:43;;;;;;;;;0.00;0.00;;;;;4.76;66.93;99950.41;5016937;28;46723;-63
2021/12/09 02:03:08;;;;;;;;;2.00;0.25;;;;;4.79;67.26;99957.34;5015525;28;45324;-61
2021/12/09 02:05:34;;;;;;;;;2.00;1.00;;;;;4.67;66.95;99944.25;5016853;28;45427;-61
2021/12/09 02:07:59;;;;;;;;;0.25;0.25;;;;;4.82;67.42;99975.97;5016933;28;45632;-56
2021/12/09 02:10:25;;;;;;;;;0.50;0.25;;;;;4.81;66.95;99971.56;5015310;28;45464;-62
2021/12/09 02:12:51;;;;;;;;;0.00;0.00;;;;;4.74;66.67;99955.19;5015249;28;45445;-61
2021/12/09 02:15:18;;;;;;;;;0.50;0.50;;;;;4.68;66.61;99947.78;5015240;28;45367;-62
2021/12/09 02:17:43;;;;;;;;;2.20;0.00;;;;;4.46;67.03;99913.28;5031934;28;45491;-60
2021/12/09 02:20:09;;;;;;;;;0.00;0.00;;;;;4.71;66.47;99971.88;5015383;28;48203;-62
2021/12/09 02:22:35;;;;;;;;;2.00;0.25;;;;;4.70;67.31;99970.22;5016421;28;45546;-60
2021/12/09 02:25:00;;;;;;;;;1.00;0.00;;;;;4.72;67.58;99971.72;5016961;28;45369;-61
2021/12/09 02:27:26;;;;;;;;;0.00;0.00;;;;;4.57;67.48;99941.00;5016648;28;45244;-61
2021/12/09 02:29:53;;;;;;;;;1.00;0.00;;;;;4.68;67.30;99967.69;5016342;28;46821;-57
2021/12/09 02:32:18;;;;;;;;;1.40;0.00;;;;;4.68;67.62;99969.53;4998743;28;45324;-60
2021/12/09 02:34:44;;;;;;;;;1.50;0.00;;;;;4.68;67.29;99973.13;5016707;28;45268;-62
2021/12/09 02:37:12;;;;;;;;;0.00;0.00;;;;;4.63;67.20;99959.25;5015444;28;45533;-57
2021/12/09 02:39:38;;;;;;;;;1.20;1.00;;;;;4.68;66.97;99967.69;5016273;28;46670;-61
2021/12/09 02:42:04;;;;;;;;;2.50;1.00;;;;;4.70;67.42;99967.50;5014840;28;45449;-60
2021/12/09 02:44:30;;;;;;;;;1.00;0.60;;;;;4.68;66.83;99962.25;5016124;28;46000;-60
2021/12/09 02:46:56;;;;;;;;;0.75;0.75;;;;;4.64;67.01;99965.53;5031352;28;45367;-55
2021/12/09 02:49:23;;;;;;;;;0.20;0.20;;;;;4.60;67.55;99963.19;5014909;28;47705;-62
2021/12/09 02:51:49;;;;;;;;;0.80;0.00;;;;;4.64;67.38;99970.97;5014701;28;45327;-63
2021/12/09 02:54:16;;;;;;;;;0.75;0.00;;;;;4.64;67.28;99968.25;5016109;28;45352;-59
2021/12/09 02:56:43;;;;;;;;;1.80;1.80;;;;;4.62;67.39;99957.56;5016349;28;45600;-62
2021/12/09 02:59:09;;;;;;;;;1.00;0.00;;;;;4.61;67.28;99967.59;5030658;28;45697;-62
2021/12/09 03:01:37;;;;;;;;;0.00;0.00;;;;;4.59;67.45;99966.13;5014488;28;45537;-61
2021/12/09 03:04:04;;;;;;;;;0.00;0.00;;;;;4.41;68.17;99939.34;5002832;28;45658;-59
2021/12/09 03:06:35;;;;;;;;;0.40;0.40;;;;;4.60;67.58;99978.69;5014937;28;45449;-58
2021/12/09 03:09:13;;;;;;;;;0.00;0.00;;;;;4.57;68.07;99971.75;5013738;28;46563;-60
2021/12/09 03:11:38;;;;;;;;;2.00;0.80;;;;;4.72;68.10;99982.59;4994883;28;45345;-60
2021/12/09 03:14:04;;;;;;;;;1.00;0.00;;;;;4.76;67.37;99988.47;5013761;28;45256;-57
2021/12/09 03:16:30;;;;;;;;;1.00;1.00;;;;;4.75;66.80;99981.31;5015439;28;45326;-62
2021/12/09 03:18:58;;;;;;;;;1.50;0.75;;;;;4.72;67.71;99976.28;5014091;28;45306;-61
2021/12/09 03:21:25;;;;;;;;;1.00;1.00;;;;;4.61;67.52;99966.75;5030629;28;45545;-60
2021/12/09 03:23:51;;;;;;;;;2.40;0.80;;;;;4.70;67.57;99983.81;5009420;28;45363;-58
2021/12/09 03:26:18;;;;;;;;;4.00;1.25;;;;;4.74;68.02;99980.50;5030696;28;45663;-63
2021/12/09 03:28:43;;;;;;;;;0.80;0.60;;;;;4.65;67.51;99959.06;5015041;28;45910;-65
2021/12/09 03:31:09;;;;;;;;;2.00;1.00;;;;;4.80;67.41;99984.31;5030586;28;45453;-58
2021/12/09 03:33:34;;;;;;;;;2.00;2.00;;;;;4.78;67.08;99997.28;5014063;28;45336;-60
2021/12/09 03:36:02;;;;;;;;;0.00;0.00;;;;;4.61;67.66;99969.47;5015705;28;45276;-62
2021/12/09 03:38:27;;;;;;;;;1.00;1.00;;;;;4.75;67.81;99986.75;5013797;28;46290;-62
2021/12/09 03:40:53;;;;;;;;;0.00;0.00;;;;;4.73;67.40;99980.69;5015170;28;45437;-62
2021/12/09 03:43:18;;;;;;;;;5.00;1.00;;;;;4.74;67.82;100002.25;5014757;28;45489;-54
2021/12/09 03:45:44;;;;;;;;;1.00;0.00;;;;;4.75;68.22;99989.47;5015539;28;45381;-62
2021/12/09 03:48:10;;;;;;;;;1.00;0.00;;;;;4.76;67.54;99988.47;5015074;28;45427;-62
2021/12/09 03:50:37;;;;;;;;;3.50;1.00;;;;;4.77;67.49;100001.03;5015001;28;45493;-61
2021/12/09 03:53:02;;;;;;;;;0.00;0.00;;;;;4.80;68.11;100000.63;5014205;28;45335;-57
2021/12/09 03:55:28;;;;;;;;;0.00;0.00;;;;;4.84;67.96;100001.94;5015444;28;45669;-63
2021/12/09 03:57:54;;;;;;;;;1.00;1.00;;;;;4.87;67.55;99998.81;5029993;28;47543;-63
2021/12/09 04:00:20;;;;;;;;;0.60;0.60;;;;;4.64;68.08;99965.53;5014803;28;45408;-62
2021/12/09 04:02:46;;;;;;;;;5.00;1.00;;;;;4.89;67.23;100012.25;4997232;28;45462;-60
2021/12/09 04:05:11;;;;;;;;;1.00;1.00;;;;;4.91;67.55;100007.44;5015194;28;45517;-58
2021/12/09 04:07:37;;;;;;;;;1.00;1.00;;;;;4.88;66.81;100010.56;5010462;28;45371;-60
2021/12/09 04:10:04;;;;;;;;;1.00;1.00;;;;;4.83;66.88;100010.28;5006138;28;45508;-62
2021/12/09 04:12:30;;;;;;;;;2.40;2.40;;;;;4.85;67.30;100011.78;5014386;28;45374;-56
2021/12/09 04:14:55;;;;;;;;;4.00;2.00;;;;;4.84;67.21;100014.69;5015054;28;45450;-58
2021/12/09 04:17:21;;;;;;;;;1.00;1.00;;;;;4.84;67.93;100011.97;5013663;28;45702;-61
2021/12/09 04:19:49;;;;;;;;;1.00;1.00;;;;;4.83;67.10;100008.41;5013686;28;45358;-61
2021/12/09 04:22:18;;;;;;;;;0.80;0.80;;;;;4.86;67.53;100007.19;5013825;28;45378;-61
2021/12/09 04:24:44;;;;;;;;;1.80;0.60;;;;;4.64;68.00;99985.41;5015248;28;45367;-60
2021/12/09 04:27:09;;;;;;;;;1.25;1.25;;;;;4.86;67.54;100018.91;5013381;28;46421;-62
2021/12/09 04:29:35;;;;;;;;;2.00;0.50;;;;;4.85;67.87;100017.22;5013030;28;45533;-60
2021/12/09 04:32:00;;;;;;;;;2.00;1.00;;;;;4.90;67.01;100015.81;5015366;28;45433;-58
2021/12/09 04:34:26;;;;;;;;;1.00;0.00;;;;;4.92;67.07;100017.31;5030538;28;45481;-61
2021/12/09 04:36:52;;;;;;;;;2.00;1.00;;;;;4.80;67.29;100000.63;5013418;28;47891;-61
2021/12/09 04:39:17;;;;;;;;;2.00;0.50;;;;;4.88;67.65;100018.72;5013588;28;45754;-61
2021/12/09 04:41:43;;;;;;;;;1.00;0.00;;;;;4.89;67.90;100017.69;5013557;28;45633;-60
2021/12/09 04:44:08;;;;;;;;;0.00;0.00;;;;;4.90;67.66;100011.19;5014759;28;45164;-55
2021/12/09 04:46:35;;;;;;;;;0.00;0.00;;;;;4.88;66.99;100013.28;5012922;28;47694;-61
2021/12/09 04:49:01;;;;;;;;;3.40;1.80;;;;;4.78;67.50;100010.88;5014303;28;45502;-61
2021/12/09 04:51:27;;;;;;;;;2.00;1.00;;;;;4.85;67.29;100008.22;5013294;28;45383;-59
2021/12/09 04:53:52;;;;;;;;;4.00;1.75;;;;;4.84;67.26;100011.97;5014730;28;45403;-59
2021/12/09 04:56:18;;;;;;;;;3.00;0.75;;;;;4.81;67.07;100017.81;5014005;28;45458;-58
2021/12/09 04:58:43;;;;;;;;;1.00;1.00;;;;;4.84;67.94;100018.25;5013748;28;45368;-62
2021/12/09 05:01:09;;;;;;;;;4.00;2.00;;;;;4.76;67.61;100002.06;5013020;28;45445;-61
2021/12/09 05:03:34;;;;;;;;;2.00;0.00;;;;;4.84;67.31;100018.25;5012828;28;45600;-61
2021/12/09 05:06:00;;;;;;;;;2.00;1.00;;;;;4.77;67.40;100019.22;5014095;28;45433;-61
2021/12/09 05:08:28;;;;;;;;;1.00;1.00;;;;;4.80;68.51;100018.84;5013072;28;45413;-59
2021/12/09 05:11:26;;;;;;;;;2.20;0.60;;;;;4.84;67.29;100029.13;5014266;28;45318;-62
2021/12/09 05:13:43;;;;;;;;;1.00;1.00;;;;;4.87;67.95;100025.19;5013055;28;45549;-61
2021/12/09 05:16:09;;;;;;;;;1.00;0.00;;;;;4.77;67.52;100013.78;5017301;28;45627;-60
2021/12/09 05:18:36;;;;;;;;;1.00;1.00;;;;;4.72;67.49;100019.78;5016006;28;45514;-61
2021/12/09 05:21:05;;;;;;;;;1.60;1.00;;;;;4.73;68.48;100027.75;5016119;28;45425;-62
2021/12/09 05:23:31;;;;;;;;;1.60;1.60;;;;;4.79;67.44;100025.31;5017837;28;45244;-60
2021/12/09 05:25:56;;;;;;;;;0.25;0.25;;;;;4.81;67.58;100028.69;5017061;28;46284;-61
2021/12/09 05:28:30;;;;;;;;;4.00;2.00;;;;;4.83;67.59;100032.91;5016142;28;45443;-60
2021/12/09 05:33:41;;;;;;;;;4.80;3.20;;;;;4.57;67.83;99990.75;5017871;28;45740;-63
2021/12/09 05:36:07;;;;;;;;;4.80;2.40;;;;;4.71;67.73;100018.09;5016978;28;46746;-60
2021/12/09 05:38:33;;;;;;;;;4.50;1.75;;;;;4.77;68.08;100030.09;5015722;28;45454;-58
2021/12/09 05:40:58;;;;;;;;;0.75;0.75;;;;;4.83;68.15;100038.34;5016086;28;45449;-60
2021/12/09 05:43:25;;;;;;;;;2.50;2.00;;;;;4.84;67.28;100042.72;4994548;28;45325;-62
2021/12/09 05:45:51;;;;;;;;;2.40;1.00;;;;;4.85;68.13;100040.84;5030866;28;46190;-62
2021/12/09 05:48:16;;;;;;;;;1.00;1.00;;;;;4.82;67.28;100033.06;5036908;28;45196;-59
2021/12/09 05:50:42;;;;;;;;;1.75;1.75;;;;;4.91;67.71;100037.34;5036927;28;45314;-61
2021/12/09 05:53:07;;;;;;;;;1.00;1.00;;;;;4.88;67.71;100043.19;5036047;28;45280;-61
2021/12/09 05:55:33;;;;;;;;;2.25;1.25;;;;;4.65;67.82;100008.84;5035230;28;46554;-57
2021/12/09 05:57:59;;;;;;;;;4.00;2.00;;;;;4.91;67.74;100048.22;5035455;28;45392;-58
2021/12/09 06:00:24;;;;;;;;;3.50;2.00;;;;;4.92;67.49;100033.63;5036224;28;45517;-62
2021/12/09 06:02:50;;;;;;;;;1.00;1.00;;;;;4.93;67.92;100045.34;5035953;28;45223;-57
2021/12/09 06:05:15;;;;;;;;;5.75;2.00;;;;;4.91;67.68;100044.69;5036265;28;45478;-61
2021/12/09 06:07:41;;;;;;;;;7.50;4.00;;;;;4.86;67.53;100050.72;5036484;28;45349;-57
2021/12/09 06:10:07;;;;;;;;;4.50;4.00;;;;;4.84;67.28;100050.03;5036722;28;45394;-60
2021/12/09 06:12:34;;;;;;;;;4.40;2.00;;;;;4.84;68.31;100056.31;5035305;28;45438;-60
2021/12/09 06:15:00;;;;;;;;;6.80;3.60;;;;;4.79;68.21;100049.78;5019959;28;45728;-60
2021/12/09 06:17:25;;;;;;;;;4.00;4.00;;;;;4.77;67.87;100052.69;5015032;28;45600;-56
2021/12/09 06:19:51;;;;;;;;;6.50;4.25;;;;;4.77;67.42;100058.13;5016336;28;45382;-64
2021/12/09 06:22:17;;;;;;;;;2.75;2.00;;;;;4.71;68.35;100048.00;5016369;28;45382;-61
2021/12/09 06:24:44;;;;;;;;;4.75;4.00;;;;;4.79;67.56;100060.66;5016240;28;46560;-64
2021/12/09 06:27:10;;;;;;;;;4.00;4.00;;;;;4.75;67.74;100058.31;5014136;28;45760;-57
2021/12/09 06:29:36;;;;;;;;;3.60;3.60;;;;;4.72;67.40;100069.59;5016064;28;45331;-61
2021/12/09 06:32:01;;;;;;;;;4.50;3.00;;;;;4.70;68.72;100066.19;5014983;28;45473;-62
2021/12/09 06:34:27;;;;;;;;;3.50;1.00;;;;;4.33;68.11;100013.69;5016376;28;45714;-62
2021/12/09 06:36:53;;;;;;;;;4.00;4.00;;;;;4.70;67.74;100068.09;5014689;28;45407;-62
2021/12/09 06:39:19;;;;;;;;;4.80;2.00;;;;;4.65;68.54;100059.66;5014873;28;45427;-57
2021/12/09 06:41:44;;;;;;;;;3.00;3.00;;;;;4.62;68.11;100050.00;5015886;28;45436;-63
2021/12/09 06:44:10;;;;;;;;;2.00;2.00;;;;;4.66;68.05;100062.19;5014258;28;48826;-61
2021/12/09 06:46:36;;;;;;;;;5.75;4.00;;;;;4.68;67.76;100075.56;5014484;28;45533;-62
2021/12/09 06:49:02;;;;;;;;;2.00;1.00;;;;;4.69;68.99;100082.72;4950468;28;45641;-54
2021/12/09 06:51:27;;;;;;;;;5.25;5.00;;;;;4.67;68.43;100082.88;5024081;28;45458;-62
2021/12/09 06:53:53;;;;;;;;;4.75;4.75;;;;;4.68;68.28;100079.13;5028225;28;46649;-61
2021/12/09 06:56:19;;;;;;;;;7.75;5.00;;;;;4.61;68.06;100083.66;4979236;28;45390;-60
2021/12/09 06:58:44;;;;;;;;;5.00;4.00;;;;;4.62;68.11;100085.31;4978421;28;45431;-62
2021/12/09 07:01:10;;;;;;;;;5.00;4.75;;;;;4.53;68.33;100081.88;4995854;28;45573;-58
2021/12/09 07:03:38;;;;;;;;;5.00;5.00;;;;;4.60;68.18;100087.41;4994214;28;48208;-60
2021/12/09 07:06:08;;;;;;;;;5.20;4.00;;;;;4.55;68.38;100087.13;4994307;28;45510;-62
2021/12/09 07:08:38;;;;;;;;;6.00;4.40;;;;;4.54;68.92;100086.25;4994529;28;45435;-60
2021/12/09 07:11:03;;;;;;;;;3.20;3.20;;;;;4.36;68.73;100064.09;4995318;28;45656;-57
2021/12/09 07:13:30;;;;;;;;;2.00;2.00;;;;;4.51;68.58;100097.53;4977868;28;45741;-62
2021/12/09 07:15:57;;;;;;;;;3.60;3.60;;;;;4.48;68.66;100095.16;4995727;28;45472;-62
2021/12/09 07:18:25;;;;;;;;;5.00;4.00;;;;;4.46;68.90;100092.66;4978210;28;45461;-56
2021/12/09 07:20:51;;;;;;;;;7.40;5.60;;;;;4.50;68.35;100086.84;5010606;28;45644;-61
2021/12/09 07:23:17;;;;;;;;;4.80;4.80;;;;;4.39;69.18;100074.56;4994059;28;48135;-60
2021/12/09 07:25:42;;;;;;;;;11.00;8.50;;;;;4.50;68.08;100093.13;4994061;28;45823;-59
2021/12/09 07:28:08;;;;;;;;;5.00;5.00;;;;;4.19;68.43;100070.53;4995936;28;45373;-59
2021/12/09 07:30:34;;;;;;;;;5.00;5.00;;;;;4.29;68.59;100083.00;4978306;28;45494;-58
2021/12/09 07:32:59;;;;;;;;;6.00;4.25;;;;;4.31;68.46;100084.50;4994206;28;45957;-62
2021/12/09 07:35:30;;;;;;;;;5.00;5.00;;;;;4.34;68.28;100084.09;4994246;28;45482;-63
2021/12/09 07:37:56;;;;;;;;;4.00;4.00;;;;;4.34;68.94;100094.16;4994586;28;45395;-59
2021/12/09 07:40:22;;;;;;;;;6.20;3.60;;;;;4.36;69.24;100085.81;4989060;28;46076;-61
2021/12/09 07:42:47;;;;;;;;;7.75;4.75;;;;;4.34;68.38;100089.53;4986589;28;45921;-61
2021/12/09 07:45:13;;;;;;;;;8.00;7.75;;;;;4.23;68.69;100075.59;4993606;28;45978;-53
2021/12/09 07:47:39;;;;;;;;;11.80;5.80;;;;;4.31;68.36;100089.06;4995242;28;45392;-58
2021/12/09 07:50:07;;;;;;;;;6.80;5.00;;;;;4.29;68.51;100091.16;4999527;28;45547;-62
2021/12/09 07:52:33;;;;;;;;;8.20;5.60;;;;;4.34;68.92;100091.44;4981236;28;47244;-57
2021/12/09 07:54:59;;;;;;;;;10.50;5.00;;;;;4.33;68.99;100092.47;4999468;28;45640;-62
2021/12/09 07:57:26;;;;;;;;;11.00;7.50;;;;;4.34;68.68;100097.69;4956504;28;45436;-61
2021/12/09 07:59:51;;;;;;;;;9.00;6.20;;;;;4.34;68.67;100096.88;5002552;28;45748;-60
2021/12/09 08:02:17;;;;;;;;;9.50;9.50;;;;;4.31;69.06;100078.22;5032823;28;46518;-61
2021/12/09 08:04:43;;;;;;;;;7.80;2.80;;;;;4.29;68.09;100104.72;5032161;28;45415;-56
2021/12/09 08:07:08;;;;;;;;;7.75;6.25;;;;;4.29;68.26;100100.16;5026864;28;45427;-61
2021/12/09 08:09:34;;;;;;;;;13.25;7.25;;;;;4.20;68.75;100072.22;4994018;28;45430;-61
2021/12/09 08:11:59;;;;;;;;;11.00;9.00;;;;;4.10;68.14;100054.53;4993511;28;45825;-62
2021/12/09 08:14:25;;;;;;;;;11.75;8.25;;;;;4.36;69.09;100105.66;4999869;28;45523;-54
2021/12/09 08:17:09;;;;;;;;;6.25;5.00;;;;;4.33;67.94;100097.91;5010604;28;45856;-60
2021/12/09 08:19:34;;;;;;;;;14.00;11.00;;;;;4.26;68.96;100092.34;5027392;28;45454;-60
2021/12/09 08:22:00;;;;;;;;;8.75;7.25;;;;;4.29;68.00;100096.56;5012599;28;46492;-62
2021/12/09 08:24:26;;;;;;;;;5.25;5.25;;;;;4.35;68.42;100090.41;5013937;28;45440;-60
2021/12/09 08:26:52;;;;;;;;;6.40;5.00;;;;;4.47;69.20;100099.78;5014133;28;45192;-61
2021/12/09 08:29:18;;;;;;;;;7.50;7.50;;;;;4.45;68.36;100080.09;5014626;28;45508;-62
2021/12/09 08:31:43;;;;;;;;;11.00;9.00;;;;;4.56;67.78;100086.09;5015815;28;45459;-56
2021/12/09 08:34:09;;;;;;;;;4.50;4.50;;;;;4.54;67.55;100096.31;5034605;28;45454;-62
2021/12/09 08:36:35;;;;;;;;;4.75;4.75;;;;;4.48;67.57;100089.72;5033506;28;45404;-62
2021/12/09 08:39:01;;;;;;;;;12.00;5.75;;;;;4.48;67.92;100097.88;5034583;28;45348;-61
2021/12/09 08:41:26;;;;;;;;;8.25;6.00;;;;;4.51;68.26;100102.09;5032671;28;45376;-59
2021/12/09 08:43:52;;;;;;;;;7.75;7.75;;;;;4.56;68.32;100095.09;5033861;28;45385;-61
2021/12/09 08:46:18;;;;;;;;;11.75;7.75;;;;;4.61;67.49;100098.06;5034327;28;45434;-60
2021/12/09 08:48:46;;;;;;;;;5.75;5.00;;;;;4.62;67.50;100096.19;5034708;28;45421;-61
2021/12/09 08:51:12;;;;;;;;;4.80;4.00;;;;;4.65;67.20;100108.56;5037093;28;45255;-59
2021/12/09 08:53:38;;;;;;;;;5.00;4.00;;;;;4.64;67.59;100098.75;4998773;28;45339;-62
2021/12/09 08:56:04;;;;;;;;;8.25;5.25;;;;;4.70;67.68;100115.13;5007417;28;45383;-63
2021/12/09 08:58:30;;;;;;;;;10.75;5.25;;;;;4.71;67.25;100110.53;5016844;28;45568;-59
2021/12/09 09:00:57;;;;;;;;;8.80;5.80;;;;;4.64;68.05;100107.72;5017397;28;47424;-58
2021/12/09 09:03:23;;;;;;;;;8.00;6.40;;;;;4.76;68.03;100118.97;5015079;28;45375;-61
2021/12/09 09:05:49;;;;;;;;;5.40;5.40;;;;;4.75;67.82;100120.84;5017146;28;45527;-62
2021/12/09 09:08:14;;;;;;;;;5.25;5.25;;;;;4.74;67.16;100124.59;5017173;28;45402;-61
2021/12/09 09:10:41;;;;;;;;;13.25;8.00;;;;;4.77;67.40;100127.97;5015838;28;46327;-56
2021/12/09 09:13:14;;;;;;;;;11.00;8.40;;;;;4.80;67.62;100133.03;5016088;28;45782;-64
2021/12/09 09:15:40;;;;;;;;;5.20;5.20;;;;;4.83;67.61;100140.81;5033318;28;45528;-62
2021/12/09 09:18:05;;;;;;;;;8.00;8.00;;;;;4.85;67.89;100141.44;5018315;28;45453;-61
2021/12/09 09:20:31;;;;;;;;;5.00;5.00;;;;;4.91;67.07;100143.41;5016229;28;47819;-59
2021/12/09 09:22:57;;;;;;;;;7.50;4.00;;;;;4.88;67.64;100141.94;5016257;28;45542;-57
2021/12/09 09:25:29;;;;;;;;;7.00;7.00;;;;;4.93;67.45;100146.81;5015956;28;45587;-61
2021/12/09 09:27:55;;;;;;;;;9.00;4.80;;;;;4.91;67.76;100137.97;5015715;28;45511;-57
2021/12/09 09:30:20;;;;;;;;;8.25;8.25;;;;;4.99;67.80;100147.91;5029825;28;47689;-61
2021/12/09 09:32:47;;;;;;;;;5.00;3.00;;;;;4.63;67.39;100088.91;5015766;28;45319;-61
2021/12/09 09:35:12;;;;;;;;;7.60;6.00;;;;;4.95;66.61;100128.41;5017462;28;45339;-59
2021/12/09 09:37:38;;;;;;;;;4.75;3.50;;;;;5.12;67.01;100163.59;5016339;28;45225;-62
2021/12/09 09:40:09;;;;;;;;;7.50;5.00;;;;;5.14;66.89;100165.06;5032737;28;45658;-56
2021/12/09 09:45:04;;;;;;;;;6.00;5.00;;;;;4.77;66.34;100101.63;5017569;28;45371;-59
2021/12/09 09:47:30;;;;;;;;;4.80;4.60;;;;;5.29;66.61;100177.81;5017585;28;45613;-59
2021/12/09 09:49:57;;;;;;;;;9.50;6.50;;;;;5.37;66.56;100185.84;5015875;28;46197;-60
2021/12/09 09:52:22;;;;;;;;;4.80;4.80;;;;;5.29;66.34;100181.34;5006193;28;45667;-58
2021/12/09 09:54:48;;;;;;;;;7.50;5.00;;;;;5.38;66.22;100187.53;4992861;28;45450;-62
2021/12/09 09:57:14;;;;;;;;;9.00;6.00;;;;;5.37;66.84;100187.72;5017284;28;45600;-56
2021/12/09 09:59:40;;;;;;;;;6.00;5.00;;;;;5.46;66.65;100193.91;5016376;28;45420;-59
2021/12/09 10:02:06;;;;;;;;;8.00;5.40;;;;;5.45;66.05;100190.34;5031415;28;45412;-62
2021/12/09 10:07:04;;;;;;;;;3.60;3.60;;;;;5.53;66.42;100182.06;5014598;28;45520;-53
2021/12/09 10:09:30;;;;;;;;;2.00;2.00;;;;;5.58;66.13;100181.47;5015313;28;45514;-59
2021/12/09 10:11:56;;;;;;;;;4.25;4.00;;;;;5.58;65.54;100184.19;4997099;28;45552;-62
2021/12/09 10:14:24;;;;;;;;;8.25;5.00;;;;;5.62;65.64;100177.34;5016215;28;45508;-60
2021/12/09 10:17:08;;;;;;;;;5.20;2.40;;;;;5.67;66.13;100187.66;5015477;28;45524;-64
2021/12/09 10:19:35;;;;;;;;;5.20;4.80;;;;;5.74;65.79;100182.25;5016219;28;45283;-62
2021/12/09 10:22:12;;;;;;;;;8.40;5.00;;;;;5.81;65.85;100175.00;5015072;28;45435;-64
2021/12/09 10:24:41;;;;;;;;;3.20;3.20;;;;;5.88;65.45;100167.75;5031704;28;45503;-57
2021/12/09 10:27:07;;;;;;;;;4.00;4.00;;;;;5.91;65.83;100166.50;5015597;28;45410;-61
2021/12/09 10:29:44;;;;;;;;;4.00;2.80;;;;;5.97;65.57;100168.44;5016107;28;46211;-63
2021/12/09 10:32:13;;;;;;;;;2.00;2.00;;;;;6.07;64.94;100152.66;5009040;28;45364;-56
2021/12/09 10:34:42;;;;;;;;;8.80;5.80;;;;;6.13;65.50;100153.72;5030350;28;45390;-61
2021/12/09 10:37:13;;;;;;;;;5.20;3.60;;;;;6.22;65.16;100157.16;5015532;28;45623;-56
2021/12/09 10:39:39;;;;;;;;;3.80;1.80;;;;;6.03;65.20;100118.66;5014388;28;46611;-62
2021/12/09 10:42:11;;;;;;;;;5.00;5.00;;;;;6.31;64.87;100153.25;5008496;28;45575;-55
2021/12/09 10:44:40;;;;;;;;;5.00;4.60;;;;;6.14;64.13;100105.53;5023891;28;45266;-60
2021/12/09 10:47:11;;;;;;;;;4.40;2.00;;;;;6.45;63.99;100147.91;4967213;28;45676;-61
2021/12/09 10:50:27;;;;;;;;;3.60;3.60;;;;;6.49;64.72;100141.84;4993539;28;45736;-56
2021/12/09 10:53:16;;;;;;;;;6.20;5.40;;;;;6.52;64.51;100126.97;4979092;28;45492;-59
2021/12/09 10:55:42;;;;;;;;;2.40;2.40;;;;;6.62;63.99;100140.25;4994957;28;45505;-61
2021/12/09 10:58:10;;;;;;;;;4.25;2.00;;;;;6.50;63.48;100104.50;5008789;28;45514;-58
2021/12/09 11:00:58;;;;;;;;;6.00;6.00;;;;;6.58;63.52;100093.44;5008637;28;46441;-61
2021/12/09 11:03:33;;;;;;;;;12.40;7.80;;;;;6.72;63.45;100096.25;4992751;28;45852;-64
2021/12/09 11:05:59;;;;;;;;;6.00;5.00;;;;;6.99;63.21;100123.66;5009632;28;45961;-63
2021/12/09 11:08:30;;;;;;;;;7.40;6.00;;;;;6.82;63.32;100084.97;5011797;28;45787;-63
2021/12/09 11:11:13;;;;;;;;;5.80;5.00;;;;;7.12;63.25;100120.97;4976135;28;47163;-66
2021/12/09 11:13:46;;;;;;;;;4.80;4.60;;;;;7.17;62.74;100115.72;5008522;28;45824;-61
2021/12/09 11:16:14;;;;;;;;;6.80;5.60;;;;;7.21;62.52;100112.59;5009838;28;45544;-59
2021/12/09 11:18:43;;;;;;;;;3.80;3.80;;;;;7.15;62.64;100090.53;5009659;28;45434;-59
2021/12/09 11:21:24;;;;;;;;;10.40;5.40;;;;;7.50;62.20;100116.00;4996535;28;47880;-60
2021/12/09 11:23:59;;;;;;;;;4.60;2.80;;;;;8.00;60.71;100105.56;5009527;28;45517;-62
2021/12/09 11:26:31;;;;;;;;;6.60;5.00;;;;;11.37;54.87;100107.91;5010851;28;45447;-64
2021/12/09 11:29:13;;;;;;;;;4.80;4.20;;;;;15.59;45.49;100090.63;5011142;28;45467;-61
2021/12/09 11:31:51;;;;;;;;;6.60;3.20;;;;;17.64;39.80;100088.75;5010949;28;46235;-61
2021/12/09 11:34:20;;;;;;;;;3.20;3.20;;;;;15.56;41.02;100093.06;5011454;28;45381;-64
2021/12/09 11:36:54;;;;;;;;;1.80;1.80;;;;;13.60;44.46;100097.53;4992228;28;45431;-63
2021/12/09 11:39:27;;;;;;;;;1.80;1.80;;;;;12.30;48.11;100078.31;4993865;28;45914;-62
2021/12/09 11:41:53;;;;;;;;;2.80;2.80;;;;;11.02;49.66;100012.47;5011145;28;45468;-64
2021/12/09 11:44:19;;;;;;;;;6.00;2.50;;;;;10.95;50.65;100097.66;5009291;28;45388;-63